Time;durP1;ratioP1;P1;durP2;ratioP2;P2;SDS_P1;SDS_P2;PMS_P1;PMS_P2;Temp;Humidity;BMP_temperature;BMP_pressure;BME280_temperature;BME280_humidity;BME280_pressure;Samples;Min_cycle;Max_cycle;Signal;HPM_P1;HPM_P2
2022/06/14 00:01:40;;;;;;;6.72;2.10;;;15.30;54.80;;;;;;5054713;28;20144;-61
2022/06/14 00:04:06;;;;;;;3.85;2.03;;;15.30;55.00;;;;;;5059888;28;20041;-61
2022/06/14 00:06:33;;;;;;;3.97;2.20;;;15.30;55.10;;;;;;5057671;28;20055;-61
2022/06/14 00:08:59;;;;;;;4.38;2.13;;;15.20;55.30;;;;;;5057185;28;20075;-61
2022/06/14 00:11:28;;;;;;;3.75;1.90;;;15.20;55.30;;;;;;5061715;28;20028;-62
2022/06/14 00:13:55;;;;;;;3.08;1.60;;;15.20;55.50;;;;;;5054896;28;20037;-61
2022/06/14 00:16:22;;;;;;;3.22;1.60;;;15.20;55.40;;;;;;5062185;28;20045;-61
2022/06/14 00:18:48;;;;;;;4.20;1.90;;;15.20;55.40;;;;;;5061516;28;20033;-61
2022/06/14 00:21:13;;;;;;;10.55;2.28;;;15.10;55.40;;;;;;5063351;28;20112;-61
2022/06/14 00:23:39;;;;;;;5.35;2.30;;;15.10;55.40;;;;;;5064646;28;20089;-62
2022/06/14 00:26:05;;;;;;;4.93;2.20;;;15.00;55.40;;;;;;5063292;28;20017;-61
2022/06/14 00:28:32;;;;;;;6.43;1.95;;;15.00;55.60;;;;;;4991593;28;20021;-61
2022/06/14 00:31:05;;;;;;;5.40;2.15;;;14.90;55.80;;;;;;5067359;28;20367;-62
2022/06/14 00:33:31;;;;;;;4.80;1.90;;;14.90;56.30;;;;;;5058375;28;20025;-61
2022/06/14 00:36:08;;;;;;;5.45;2.15;;;14.90;55.90;;;;;;5066898;28;20063;-61
2022/06/14 00:38:35;;;;;;;5.85;2.30;;;14.90;56.60;;;;;;5056582;28;21558;-62
2022/06/14 00:41:02;;;;;;;4.22;2.25;;;14.90;56.20;;;;;;5056601;28;20033;-61
2022/06/14 00:43:30;;;;;;;5.40;2.33;;;14.90;56.40;;;;;;5062341;28;20045;-61
2022/06/14 00:46:16;;;;;;;4.63;1.92;;;14.80;56.60;;;;;;5065086;28;20183;-62
2022/06/14 00:48:47;;;;;;;4.95;2.22;;;14.80;57.30;;;;;;5064626;28;20029;-62
2022/06/14 00:51:19;;;;;;;6.32;2.00;;;14.80;56.50;;;;;;5062836;28;20021;-61
2022/06/14 00:53:56;;;;;;;4.30;1.83;;;14.80;56.70;;;;;;5063348;28;20447;-62
2022/06/14 00:56:52;;;;;;;5.65;2.05;;;14.80;56.80;;;;;;5062335;28;20029;-62
2022/06/14 00:59:24;;;;;;;6.93;1.98;;;14.80;57.60;;;;;;5058049;28;20029;-61
2022/06/14 01:01:56;;;;;;;6.28;2.42;;;14.70;56.60;;;;;;5063429;28;20045;-61
2022/06/14 01:04:25;;;;;;;6.60;2.28;;;14.80;56.90;;;;;;5057618;28;20029;-61
2022/06/14 01:07:06;;;;;;;4.38;2.35;;;14.70;56.90;;;;;;5049463;28;20107;-62
2022/06/14 01:09:41;;;;;;;3.38;1.77;;;14.70;57.50;;;;;;5064955;28;20040;-62
2022/06/14 01:12:11;;;;;;;4.93;2.42;;;14.70;57.00;;;;;;5059564;28;20029;-62
2022/06/14 01:14:52;;;;;;;4.00;2.10;;;14.70;56.90;;;;;;5055373;28;20030;-61
2022/06/14 01:17:19;;;;;;;5.80;2.15;;;14.70;57.70;;;;;;5046339;28;20120;-61
2022/06/14 01:19:45;;;;;;;4.97;2.20;;;14.70;56.90;;;;;;5062462;28;20452;-61
2022/06/14 01:22:10;;;;;;;7.88;1.88;;;14.60;57.00;;;;;;5064327;28;20040;-62
2022/06/14 01:24:38;;;;;;;3.72;2.03;;;14.60;57.10;;;;;;5059981;28;20036;-62
2022/06/14 01:27:08;;;;;;;3.55;2.05;;;14.60;57.30;;;;;;5064241;28;20028;-62
2022/06/14 01:29:36;;;;;;;4.28;2.25;;;14.60;57.30;;;;;;5062491;28;20024;-61
2022/06/14 01:32:06;;;;;;;4.00;2.15;;;14.60;57.30;;;;;;5063319;28;20025;-62
2022/06/14 01:34:35;;;;;;;3.97;2.30;;;14.50;57.30;;;;;;5062170;28;20056;-62
2022/06/14 01:37:01;;;;;;;3.47;2.03;;;14.50;57.20;;;;;;5060020;28;20040;-61
2022/06/14 01:39:27;;;;;;;6.50;2.28;;;14.50;57.30;;;;;;5062974;28;20033;-61
2022/06/14 01:42:11;;;;;;;4.22;2.10;;;14.40;57.30;;;;;;5060576;28;20389;-62
2022/06/14 01:45:02;;;;;;;4.68;2.35;;;14.40;58.40;;;;;;5059129;28;20052;-61
2022/06/14 01:47:37;;;;;;;4.60;2.08;;;14.40;58.40;;;;;;5050042;28;20482;-60
2022/06/14 01:53:03;;;;;;;6.57;2.30;;;14.30;57.80;;;;;;5053528;28;20123;-62
2022/06/14 01:55:32;;;;;;;4.65;2.17;;;14.30;57.60;;;;;;5061170;28;20033;-61
2022/06/14 01:58:09;;;;;;;5.28;2.22;;;14.30;57.60;;;;;;5062714;28;20478;-61
2022/06/14 02:01:02;;;;;;;4.43;2.20;;;14.20;57.60;;;;;;5045468;28;20568;-61
2022/06/14 02:06:38;;;;;;;3.80;2.13;;;14.20;58.40;;;;;;5051405;28;20048;-61
2022/06/14 02:09:21;;;;;;;5.75;2.25;;;14.10;57.80;;;;;;5052954;28;20041;-61
2022/06/14 02:11:47;;;;;;;5.50;1.90;;;14.10;58.70;;;;;;5052580;28;20101;-61
2022/06/14 02:14:24;;;;;;;6.68;2.10;;;14.10;58.10;;;;;;5058272;28;20116;-61
2022/06/14 02:17:01;;;;;;;7.28;2.00;;;14.00;58.40;;;;;;5058293;28;20029;-62
2022/06/14 02:19:33;;;;;;;5.18;2.22;;;14.00;58.70;;;;;;5063175;28;20481;-61
2022/06/14 02:22:07;;;;;;;5.50;2.15;;;14.00;58.30;;;;;;5060460;28;20034;-60
2022/06/14 02:24:41;;;;;;;7.00;2.00;;;14.00;58.80;;;;;;5062353;28;20029;-60
2022/06/14 02:27:26;;;;;;;4.35;2.28;;;14.00;58.80;;;;;;5060568;28;20059;-60
2022/06/14 02:29:54;;;;;;;;;;;13.90;59.00;;;;;;5061263;28;20063;-61
2022/06/14 02:32:46;;;;;;;4.05;2.17;;;14.00;58.40;;;;;;5057865;28;19915;-60
2022/06/14 02:35:38;;;;;;;4.20;2.05;;;13.90;58.60;;;;;;5060624;28;20061;-63
2022/06/14 02:38:24;;;;;;;6.57;2.75;;;13.90;59.00;;;;;;5061565;28;20033;-63
2022/06/14 02:40:56;;;;;;;6.90;2.35;;;13.80;59.00;;;;;;5060039;28;20021;-63
2022/06/14 02:43:40;;;;;;;4.35;2.33;;;13.80;58.80;;;;;;5061419;28;20040;-63
2022/06/14 02:46:18;;;;;;;4.47;2.70;;;13.80;59.40;;;;;;5064755;28;20465;-63
2022/06/14 02:48:56;;;;;;;4.32;2.25;;;13.70;59.00;;;;;;5051999;28;20028;-63
2022/06/14 02:51:28;;;;;;;5.60;2.38;;;13.70;59.20;;;;;;5061644;28;20266;-63
2022/06/14 02:54:15;;;;;;;4.57;2.08;;;13.70;59.00;;;;;;5058837;28;20117;-63
2022/06/14 02:57:02;;;;;;;5.63;2.38;;;13.70;59.50;;;;;;5065270;28;20024;-62
2022/06/14 02:59:36;;;;;;;4.90;2.97;;;13.70;59.50;;;;;;5058003;28;20499;-62
2022/06/14 03:02:08;;;;;;;3.00;2.30;;;13.60;58.90;;;;;;5061521;28;20032;-62
2022/06/14 03:05:00;;;;;;;5.82;2.55;;;13.60;58.90;;;;;;5058277;28;20032;-62
2022/06/14 03:07:44;;;;;;;3.05;1.95;;;13.60;59.80;;;;;;5051544;28;20033;-62
2022/06/14 03:10:11;;;;;;;4.30;2.30;;;13.60;59.90;;;;;;5059964;28;20037;-62
2022/06/14 03:12:49;;;;;;;4.35;2.10;;;13.60;58.90;;;;;;5049583;28;21247;-63
2022/06/14 03:15:22;;;;;;;7.40;2.20;;;13.60;59.20;;;;;;5053107;28;20032;-63
2022/06/14 03:18:02;;;;;;;5.93;2.80;;;13.60;59.40;;;;;;5059118;28;20029;-60
2022/06/14 03:20:49;;;;;;;4.90;2.50;;;13.60;59.80;;;;;;5060999;28;20042;-60
2022/06/14 03:23:42;;;;;;;6.60;2.60;;;13.50;60.00;;;;;;5060867;28;20021;-60
2022/06/14 03:26:24;;;;;;;4.55;2.13;;;13.50;59.70;;;;;;5049738;28;20024;-62
2022/06/14 03:28:52;;;;;;;6.30;2.40;;;13.50;59.30;;;;;;5063533;28;20493;-62
2022/06/14 03:31:35;;;;;;;6.20;2.25;;;13.50;59.20;;;;;;5057712;28;20032;-62
2022/06/14 03:34:24;;;;;;;8.73;2.60;;;13.50;60.10;;;;;;5056662;28;20125;-62
2022/06/14 03:36:52;;;;;;;3.85;2.10;;;13.40;60.40;;;;;;5055126;28;20037;-63
2022/06/14 03:39:33;;;;;;;4.60;2.10;;;13.40;59.40;;;;;;5064119;28;20051;-60
2022/06/14 03:41:59;;;;;;;3.88;2.03;;;13.40;60.40;;;;;;5055031;28;20052;-60
2022/06/14 03:44:27;;;;;;;5.50;2.60;;;13.40;59.50;;;;;;5063330;28;20021;-59
2022/06/14 03:47:15;;;;;;;5.05;2.63;;;13.40;59.80;;;;;;5062632;28;20032;-62
2022/06/14 03:50:06;;;;;;;5.25;2.30;;;13.40;61.00;;;;;;5059995;28;20466;-62
2022/06/14 03:53:14;;;;;;;3.58;2.20;;;13.40;60.80;;;;;;5053223;28;20033;-63
2022/06/14 03:55:39;;;;;;;3.75;2.22;;;13.40;60.80;;;;;;5066314;28;20037;-63
2022/06/14 03:58:14;;;;;;;5.75;2.42;;;13.40;59.80;;;;;;5065127;28;20029;-62
2022/06/14 04:00:51;;;;;;;5.45;2.35;;;13.50;60.60;;;;;;5065118;28;20084;-62
2022/06/14 04:03:32;;;;;;;4.15;2.03;;;13.50;61.00;;;;;;5066796;28;20032;-63
2022/06/14 04:06:21;;;;;;;5.32;2.42;;;13.50;60.00;;;;;;5066409;28;20029;-63
2022/06/14 04:08:59;;;;;;;5.18;2.47;;;13.50;61.00;;;;;;5058102;28;20031;-63
2022/06/14 04:11:49;;;;;;;4.68;2.20;;;13.60;61.10;;;;;;5064958;28;20393;-63
2022/06/14 04:14:54;;;;;;;7.15;2.20;;;13.60;60.90;;;;;;5058945;28;20041;-62
2022/06/14 04:17:41;;;;;;;5.68;2.03;;;13.70;60.90;;;;;;4987779;28;20178;-63
2022/06/14 04:20:41;;;;;;;5.72;2.00;;;13.70;60.40;;;;;;4992248;28;20062;-63
2022/06/14 04:23:19;;;;;;;3.72;1.98;;;13.80;60.90;;;;;;4990045;28;20086;-62
2022/06/14 04:25:44;;;;;;;4.93;2.28;;;13.80;60.10;;;;;;4986649;28;20122;-62
2022/06/14 04:28:24;;;;;;;6.80;2.38;;;13.90;59.80;;;;;;4986213;28;20050;-62
2022/06/14 04:31:14;;;;;;;4.40;2.25;;;13.90;60.60;;;;;;4996733;28;20042;-62
2022/06/14 04:33:46;;;;;;;7.53;2.28;;;14.00;60.80;;;;;;4986932;28;20031;-60
2022/06/14 04:36:15;;;;;;;4.68;2.05;;;14.00;59.90;;;;;;4985974;28;20059;-60
2022/06/14 04:39:08;;;;;;;4.30;2.15;;;14.10;60.00;;;;;;4982521;28;20065;-60
2022/06/14 04:41:47;;;;;;;5.60;2.17;;;14.10;60.50;;;;;;4987622;28;20077;-60
2022/06/14 04:44:23;;;;;;;4.00;2.70;;;14.20;60.20;;;;;;4987586;28;20476;-60
2022/06/14 04:47:05;;;;;;;6.10;2.30;;;14.30;60.30;;;;;;4987643;28;20031;-59
2022/06/14 04:49:41;;;;;;;5.95;2.15;;;14.30;60.20;;;;;;4984430;28;20061;-62
2022/06/14 04:52:23;;;;;;;7.57;2.63;;;14.40;59.90;;;;;;4986663;28;20487;-60
2022/06/14 04:55:00;;;;;;;6.15;2.95;;;14.50;59.90;;;;;;5042114;28;20037;-61
2022/06/14 04:57:49;;;;;;;6.97;2.80;;;14.50;59.60;;;;;;5064904;28;20094;-60
2022/06/14 05:00:22;;;;;;;4.13;2.40;;;14.60;59.70;;;;;;5064187;28;20052;-63
2022/06/14 05:03:09;;;;;;;4.70;2.45;;;14.70;59.60;;;;;;5057993;28;20036;-63
2022/06/14 05:05:53;;;;;;;7.28;2.63;;;14.80;59.90;;;;;;5062608;28;20481;-62
2022/06/14 05:08:31;;;;;;;4.00;2.58;;;14.80;59.60;;;;;;5062879;28;20052;-62
2022/06/14 05:11:08;;;;;;;3.95;2.70;;;14.90;59.60;;;;;;5064034;28;20049;-63
2022/06/14 05:13:49;;;;;;;7.15;2.45;;;15.00;59.40;;;;;;5064723;28;20048;-63
2022/06/14 05:16:29;;;;;;;9.25;2.83;;;15.10;59.70;;;;;;5059778;28;20096;-63
2022/06/14 05:18:58;;;;;;;7.15;2.45;;;15.30;59.40;;;;;;5057805;28;20029;-59
2022/06/14 05:21:53;;;;;;;5.15;2.35;;;15.30;59.10;;;;;;5064189;28;20036;-60
2022/06/14 05:24:19;;;;;;;10.68;2.75;;;15.50;59.20;;;;;;5025990;28;20049;-61
2022/06/14 05:27:21;;;;;;;8.55;2.78;;;15.60;58.90;;;;;;5057428;28;20067;-60
2022/06/14 05:29:47;;;;;;;4.93;2.50;;;15.80;59.10;;;;;;5065437;28;20029;-60
2022/06/14 05:32:50;;;;;;;4.22;2.35;;;15.90;58.50;;;;;;5067402;28;20043;-61
2022/06/14 05:35:28;;;;;;;6.88;2.85;;;16.00;58.70;;;;;;5060282;28;20107;-61
2022/06/14 05:37:58;;;;;;;8.75;2.80;;;16.20;58.60;;;;;;5064693;28;20025;-61
2022/06/14 05:40:27;;;;;;;15.00;2.90;;;16.40;58.60;;;;;;5045624;28;20024;-61
2022/06/14 05:43:07;;;;;;;6.05;2.72;;;16.50;58.50;;;;;;5058601;28;20040;-62
2022/06/14 05:45:38;;;;;;;7.25;2.85;;;16.70;58.30;;;;;;5056888;28;20017;-61
2022/06/14 05:48:07;;;;;;;9.27;2.60;;;16.90;58.20;;;;;;5049991;28;20031;-61
2022/06/14 05:50:42;;;;;;;8.57;3.08;;;17.10;57.90;;;;;;5057892;28;20448;-61
2022/06/14 05:53:23;;;;;;;4.13;2.75;;;17.30;57.80;;;;;;5057904;28;20025;-60
2022/06/14 05:55:54;;;;;;;8.75;3.40;;;17.50;57.50;;;;;;5061498;28;20085;-61
2022/06/14 05:58:35;;;;;;;10.38;3.53;;;17.70;57.10;;;;;;5061358;28;20028;-61
2022/06/14 06:01:16;;;;;;;13.82;2.92;;;17.90;56.80;;;;;;5056729;28;20081;-61
2022/06/14 06:03:54;;;;;;;8.13;2.90;;;18.10;56.40;;;;;;5056858;28;20040;-61
2022/06/14 06:06:37;;;;;;;10.95;3.40;;;18.30;56.10;;;;;;5055793;28;20041;-61
2022/06/14 06:09:13;;;;;;;10.57;3.33;;;18.40;55.90;;;;;;5043101;28;20044;-62
2022/06/14 06:11:45;;;;;;;15.38;3.65;;;18.60;55.70;;;;;;5057755;28;20059;-61
2022/06/14 06:14:34;;;;;;;10.88;3.25;;;18.80;55.50;;;;;;5057865;28;20035;-61
2022/06/14 06:17:07;;;;;;;19.70;3.92;;;19.00;55.00;;;;;;5044455;28;20507;-62
2022/06/14 06:19:57;;;;;;;8.88;3.70;;;19.20;54.90;;;;;;5064373;28;20033;-62
2022/06/14 06:22:38;;;;;;;8.95;2.65;;;19.30;54.60;;;;;;5067876;28;20431;-63
2022/06/14 06:25:15;;;;;;;7.85;3.15;;;19.50;54.20;;;;;;5053462;28;20092;-62
2022/06/14 06:27:49;;;;;;;5.80;2.58;;;19.70;54.00;;;;;;5062952;28;20085;-62
2022/06/14 06:30:26;;;;;;;8.35;2.78;;;19.90;54.00;;;;;;5061214;28;20105;-62
2022/06/14 06:32:53;;;;;;;14.52;2.90;;;20.10;53.00;;;;;;5063554;28;20090;-62
2022/06/14 06:35:26;;;;;;;11.68;3.28;;;20.20;53.30;;;;;;5057684;28;20056;-62
2022/06/14 06:38:09;;;;;;;8.32;3.50;;;20.40;53.60;;;;;;5054157;28;20061;-62
2022/06/14 06:41:49;;;;;;;8.25;2.85;;;20.50;52.10;;;;;;5063308;28;20031;-62
2022/06/14 06:43:27;;;;;;;6.15;2.67;;;20.70;52.50;;;;;;5052305;28;20046;-63
2022/06/14 06:45:53;;;;;;;5.63;2.63;;;20.80;52.20;;;;;;5047441;28;20493;-62
2022/06/14 06:48:28;;;;;;;8.32;2.95;;;20.90;52.00;;;;;;5060249;28;20051;-63
2022/06/14 06:51:00;;;;;;;198.63;15.70;;;21.00;51.90;;;;;;5060435;28;20108;-62
2022/06/14 06:53:35;;;;;;;10.77;3.85;;;21.20;51.80;;;;;;5062515;28;20088;-63
2022/06/14 06:56:07;;;;;;;7.90;2.97;;;21.30;51.30;;;;;;5063070;28;20049;-62
2022/06/14 06:58:51;;;;;;;7.20;2.67;;;21.40;50.40;;;;;;5054525;28;20681;-62
2022/06/14 07:01:31;;;;;;;8.43;3.03;;;21.50;50.70;;;;;;5055299;28;20092;-63
2022/06/14 07:04:18;;;;;;;11.00;2.60;;;21.70;50.60;;;;;;5062409;28;20536;-62
2022/06/14 07:06:57;;;;;;;6.63;2.00;;;21.80;48.80;;;;;;5054889;28;20021;-62
2022/06/14 07:09:45;;;;;;;5.97;2.22;;;21.90;47.70;;;;;;5055367;28;20429;-62
2022/06/14 07:12:21;;;;;;;8.73;2.60;;;22.00;47.90;;;;;;5059787;28;20021;-62
2022/06/14 07:14:58;;;;;;;7.78;2.22;;;22.10;48.20;;;;;;5060529;28;20017;-63
2022/06/14 07:17:58;;;;;;;6.65;2.47;;;22.20;48.50;;;;;;5055266;28;20025;-62
2022/06/14 07:20:34;;;;;;;5.25;2.30;;;22.40;47.80;;;;;;5056494;28;20037;-62
2022/06/14 07:23:15;;;;;;;7.10;2.65;;;22.50;47.00;;;;;;5052201;28;20025;-62
2022/06/14 07:26:19;;;;;;;7.15;2.17;;;22.60;46.70;;;;;;5061825;28;20033;-62
2022/06/14 07:29:26;;;;;;;6.78;2.10;;;22.70;46.60;;;;;;5045249;28;20037;-62
2022/06/14 07:31:57;;;;;;;7.43;2.28;;;22.80;46.00;;;;;;5014718;28;20034;-63
2022/06/14 07:34:24;;;;;;;5.55;2.00;;;22.90;45.70;;;;;;5031121;28;20041;-63
2022/06/14 07:37:11;;;;;;;6.25;1.83;;;23.00;45.60;;;;;;5017984;28;20026;-63
2022/06/14 07:39:39;;;;;;;10.23;2.65;;;23.00;44.80;;;;;;5018742;28;20038;-62
2022/06/14 07:42:16;;;;;;;5.90;2.28;;;23.10;45.70;;;;;;5022670;28;20062;-62
2022/06/14 07:44:50;;;;;;;3.78;2.45;;;23.30;44.70;;;;;;5025698;28;20030;-62
2022/06/14 07:47:19;;;;;;;4.32;1.88;;;23.30;44.90;;;;;;5025426;28;20069;-63
2022/06/14 07:50:01;;;;;;;4.45;2.17;;;23.40;45.10;;;;;;5024152;28;20049;-63
2022/06/14 07:52:52;;;;;;;5.05;2.33;;;23.50;44.60;;;;;;5013673;28;20415;-63
2022/06/14 07:55:27;;;;;;;8.82;2.60;;;23.60;44.60;;;;;;5021205;28;20028;-63
2022/06/14 07:58:07;;;;;;;6.70;2.42;;;23.60;44.90;;;;;;5021409;28;20034;-63
2022/06/14 08:03:32;;;;;;;7.25;2.67;;;23.80;44.20;;;;;;5011235;28;20203;-63
2022/06/14 08:06:01;;;;;;;5.63;2.20;;;23.90;43.40;;;;;;5040510;28;20038;-63
2022/06/14 08:08:33;;;;;;;7.50;2.75;;;24.00;44.00;;;;;;5062447;28;20028;-63
2022/06/14 08:11:06;;;;;;;13.32;2.47;;;24.00;43.40;;;;;;5063791;28;20044;-63
2022/06/14 08:13:40;;;;;;;10.65;2.45;;;24.00;42.90;;;;;;5056454;28;20033;-63
2022/06/14 08:16:08;;;;;;;4.63;2.35;;;24.20;43.40;;;;;;5051427;28;20095;-63
2022/06/14 08:18:49;;;;;;;8.13;2.65;;;24.20;43.40;;;;;;5054369;28;20029;-63
2022/06/14 08:21:32;;;;;;;9.93;2.10;;;24.30;43.50;;;;;;5059102;28;20092;-63
2022/06/14 08:24:08;;;;;;;6.13;2.40;;;24.40;42.90;;;;;;5058968;28;20032;-63
2022/06/14 08:26:42;;;;;;;5.20;2.17;;;24.50;42.60;;;;;;5050055;28;20021;-63
2022/06/14 08:29:34;;;;;;;8.02;2.40;;;24.60;42.60;;;;;;5059138;28;20071;-62
2022/06/14 08:32:21;;;;;;;17.10;2.80;;;24.60;41.90;;;;;;5054570;28;20047;-63
2022/06/14 08:35:13;;;;;;;12.85;2.88;;;24.70;41.30;;;;;;5047793;28;20080;-62
2022/06/14 08:37:49;;;;;;;11.75;2.70;;;24.80;39.80;;;;;;5055572;28;20029;-63
2022/06/14 08:40:30;;;;;;;20.70;4.88;;;24.80;41.70;;;;;;5061743;28;20051;-62
2022/06/14 08:43:08;;;;;;;6.93;2.25;;;24.90;42.30;;;;;;5059067;28;20029;-63
2022/06/14 08:45:33;;;;;;;6.57;2.33;;;25.00;40.60;;;;;;5065546;28;20489;-62
2022/06/14 08:48:24;;;;;;;5.25;2.08;;;25.00;41.40;;;;;;5062844;28;20028;-63
2022/06/14 08:51:12;;;;;;;7.25;2.40;;;25.00;40.90;;;;;;5064724;28;20096;-62
2022/06/14 08:53:56;;;;;;;6.60;2.35;;;25.10;40.70;;;;;;5059858;28;20028;-63
2022/06/14 08:56:55;;;;;;;7.80;2.22;;;25.20;40.60;;;;;;5057853;28;20401;-63
2022/06/14 08:59:27;;;;;;;5.72;2.22;;;25.20;40.90;;;;;;5058433;28;20041;-64
2022/06/14 09:02:12;;;;;;;8.02;2.00;;;25.30;39.90;;;;;;5057646;28;20032;-63
2022/06/14 09:04:49;;;;;;;4.43;1.95;;;25.40;41.00;;;;;;5054541;28;20025;-64
2022/06/14 09:08:00;;;;;;;5.07;1.90;;;25.50;40.80;;;;;;5055708;28;20868;-63
2022/06/14 09:10:49;;;;;;;5.28;2.33;;;25.60;40.30;;;;;;5063342;28;20033;-62
2022/06/14 09:13:32;;;;;;;4.50;1.92;;;25.70;38.90;;;;;;4987035;28;20408;-63
2022/06/14 09:16:25;;;;;;;4.78;1.90;;;25.80;38.60;;;;;;4976269;28;20027;-62
2022/06/14 09:18:54;;;;;;;5.85;2.28;;;25.90;38.30;;;;;;4982830;28;20078;-63
2022/06/14 09:21:46;;;;;;;5.72;2.33;;;26.00;39.40;;;;;;4987015;28;20031;-63
2022/06/14 09:24:27;;;;;;;7.20;2.30;;;26.00;39.10;;;;;;4984445;28;20050;-62
2022/06/14 09:26:58;;;;;;;6.25;2.25;;;26.20;39.00;;;;;;4929695;28;20038;-64
2022/06/14 09:29:33;;;;;;;4.30;1.85;;;26.30;39.00;;;;;;4992529;28;20130;-63
2022/06/14 09:32:14;;;;;;;8.32;1.95;;;26.30;38.40;;;;;;4987343;28;20159;-63
2022/06/14 09:34:54;;;;;;;5.28;1.88;;;26.40;37.50;;;;;;4989694;28;20058;-63
2022/06/14 09:37:39;;;;;;;5.22;1.80;;;26.40;37.30;;;;;;4989343;28;20142;-63
2022/06/14 09:40:16;;;;;;;;;;;26.40;37.70;;;;;;4989211;28;20164;-63
2022/06/14 09:43:11;;;;;;;6.78;1.92;;;26.50;38.20;;;;;;4987671;28;19910;-63
2022/06/14 09:46:02;;;;;;;9.55;2.13;;;26.50;37.20;;;;;;4981673;28;20047;-63
2022/06/14 09:48:39;;;;;;;7.15;2.00;;;26.30;37.00;;;;;;4988490;28;20093;-63
2022/06/14 09:51:32;;;;;;;3.80;1.70;;;26.30;37.60;;;;;;5043870;28;20097;-63
2022/06/14 09:54:17;;;;;;;5.68;1.90;;;26.30;37.20;;;;;;5053431;28;20033;-63
2022/06/14 09:57:20;;;;;;;4.18;1.90;;;26.30;38.10;;;;;;5057431;28;20021;-63
2022/06/14 09:59:46;;;;;;;5.80;2.00;;;26.40;36.60;;;;;;5064416;28;20024;-63
2022/06/14 10:02:39;;;;;;;7.30;1.92;;;26.40;37.80;;;;;;5058833;28;20074;-63
2022/06/14 10:05:22;;;;;;;4.22;1.80;;;26.40;37.70;;;;;;5062498;28;20029;-63
2022/06/14 10:08:16;;;;;;;6.57;2.50;;;26.50;37.10;;;;;;5058638;28;20024;-63
2022/06/14 10:11:13;;;;;;;10.02;2.00;;;26.70;35.60;;;;;;5062621;28;20042;-63
2022/06/14 10:14:00;;;;;;;6.55;2.35;;;26.70;35.90;;;;;;5040164;28;20396;-63
2022/06/14 10:16:32;;;;;;;49.88;5.65;;;26.80;35.90;;;;;;5061893;28;20025;-63
2022/06/14 10:19:18;;;;;;;8.43;2.33;;;26.90;36.10;;;;;;5063257;28;20021;-63
2022/06/14 10:21:59;;;;;;;4.82;2.00;;;26.90;37.10;;;;;;5052564;28;20030;-63
2022/06/14 10:24:36;;;;;;;4.78;2.10;;;27.00;37.30;;;;;;5062504;28;20096;-63
2022/06/14 10:30:16;;;;;;;7.63;2.00;;;27.10;34.50;;;;;;5055331;28;20079;-63
2022/06/14 10:32:56;;;;;;;4.80;1.85;;;27.10;35.90;;;;;;5058349;28;20045;-63
2022/06/14 10:35:50;;;;;;;3.67;1.50;;;27.10;36.30;;;;;;5064834;28;20108;-63
2022/06/14 10:38:31;;;;;;;6.05;2.22;;;27.10;36.40;;;;;;5037737;28;20554;-63
2022/06/14 10:41:24;;;;;;;3.25;1.85;;;27.20;36.10;;;;;;5063616;28;20021;-64
2022/06/14 10:44:13;;;;;;;7.10;2.10;;;27.30;36.50;;;;;;5053581;28;20086;-64
2022/06/14 10:47:09;;;;;;;6.00;2.35;;;27.40;35.40;;;;;;5058670;28;20021;-64
2022/06/14 10:49:41;;;;;;;4.38;1.70;;;27.40;32.50;;;;;;5062839;28;20056;-64
2022/06/14 10:52:30;;;;;;;8.35;1.83;;;27.50;35.10;;;;;;5055898;28;20017;-64
2022/06/14 10:55:15;;;;;;;4.57;1.45;;;27.50;33.60;;;;;;5061752;28;20025;-64
2022/06/14 10:58:02;;;;;;;5.40;2.03;;;27.60;33.30;;;;;;5056216;28;20092;-63
2022/06/14 11:00:40;;;;;;;4.72;1.90;;;27.60;34.90;;;;;;5055293;28;20021;-64
2022/06/14 11:03:19;;;;;;;4.80;2.00;;;27.70;34.40;;;;;;5061967;28;20029;-64
2022/06/14 11:06:16;;;;;;;3.85;1.70;;;27.80;34.30;;;;;;5063802;28;20392;-65
2022/06/14 11:08:54;;;;;;;5.88;1.63;;;27.90;33.90;;;;;;5058393;28;20033;-65
2022/06/14 11:11:25;;;;;;;6.88;1.70;;;27.90;34.40;;;;;;5050425;28;20037;-65
2022/06/14 11:14:19;;;;;;;8.65;1.80;;;28.00;34.70;;;;;;5062403;28;20029;-64
2022/06/14 11:17:04;;;;;;;4.85;1.98;;;28.10;33.50;;;;;;5045511;28;20444;-64
2022/06/14 11:19:48;;;;;;;4.03;1.73;;;28.20;34.10;;;;;;5054035;28;21352;-64
2022/06/14 11:22:29;;;;;;;3.05;1.55;;;28.30;33.10;;;;;;5049733;28;20024;-65
2022/06/14 11:24:59;;;;;;;7.70;1.45;;;28.30;33.40;;;;;;5055267;28;20024;-64
2022/06/14 11:27:36;;;;;;;4.40;1.80;;;28.40;34.00;;;;;;5004868;28;20040;-65
2022/06/14 11:30:31;;;;;;;3.67;1.50;;;28.50;31.40;;;;;;5063278;28;20551;-64
2022/06/14 11:33:08;;;;;;;2.13;1.23;;;28.50;32.30;;;;;;4981835;28;20043;-64
2022/06/14 11:36:04;;;;;;;3.92;1.90;;;28.60;33.40;;;;;;4977140;28;20055;-65
2022/06/14 11:38:56;;;;;;;6.28;1.80;;;28.60;31.60;;;;;;4952712;28;20080;-65
2022/06/14 11:41:25;;;;;;;2.83;1.65;;;28.70;32.40;;;;;;4978003;28;20231;-65
2022/06/14 11:44:24;;;;;;;5.15;1.45;;;28.80;32.70;;;;;;4978907;28;20049;-65
2022/06/14 11:47:01;;;;;;;2.78;1.65;;;28.80;31.70;;;;;;4971652;28;20476;-65
2022/06/14 11:49:39;;;;;;;4.40;1.52;;;28.90;30.70;;;;;;4959500;28;20051;-65
2022/06/14 11:52:23;;;;;;;6.95;1.70;;;28.90;31.00;;;;;;4978954;28;20051;-65
2022/06/14 11:55:14;;;;;;;7.80;1.90;;;28.90;30.60;;;;;;4984772;28;20035;-65
2022/06/14 11:57:42;;;;;;;9.48;1.83;;;28.90;30.50;;;;;;4971642;28;20039;-65
2022/06/14 12:00:23;;;;;;;5.30;1.63;;;28.90;31.70;;;;;;4985286;28;20085;-65
2022/06/14 12:03:08;;;;;;;3.80;1.65;;;28.90;31.10;;;;;;4978506;28;20039;-65
2022/06/14 12:05:41;;;;;;;4.00;1.63;;;28.90;30.70;;;;;;4975799;28;20078;-65
2022/06/14 12:08:44;;;;;;;3.00;1.60;;;28.90;30.60;;;;;;4980065;28;20030;-65
2022/06/14 12:11:25;;;;;;;22.02;3.33;;;28.90;30.80;;;;;;5061229;28;20033;-66
2022/06/14 12:13:59;;;;;;;4.15;1.65;;;29.00;31.30;;;;;;5052970;28;20029;-66
2022/06/14 12:16:40;;;;;;;23.27;2.53;;;29.00;31.10;;;;;;5055836;28;20041;-66
2022/06/14 12:19:16;;;;;;;4.38;1.65;;;29.00;30.00;;;;;;5065329;28;20052;-66
2022/06/14 12:21:58;;;;;;;3.10;1.45;;;29.00;29.80;;;;;;5058976;28;20111;-65
2022/06/14 12:27:18;;;;;;;4.97;1.60;;;29.10;30.00;;;;;;5062201;28;20081;-65
2022/06/14 12:29:48;;;;;;;4.00;1.75;;;29.10;31.40;;;;;;5067114;28;20040;-65
2022/06/14 12:32:19;;;;;;;5.22;1.60;;;29.20;31.10;;;;;;5061350;28;20041;-65
2022/06/14 12:34:56;;;;;;;4.63;1.60;;;29.40;31.90;;;;;;5067354;28;20067;-65
2022/06/14 12:37:40;;;;;;;4.78;1.83;;;29.50;31.60;;;;;;5065017;28;20033;-65
2022/06/14 12:40:09;;;;;;;4.28;1.73;;;29.70;31.00;;;;;;5060847;28;20038;-66
2022/06/14 12:43:05;;;;;;;9.60;2.35;;;29.90;31.40;;;;;;5052417;28;20080;-65
2022/06/14 12:45:49;;;;;;;4.93;1.50;;;30.00;28.40;;;;;;5065831;28;20021;-65
2022/06/14 12:48:17;;;;;;;6.77;1.77;;;30.00;29.00;;;;;;5061469;28;20102;-65
2022/06/14 12:50:49;;;;;;;4.93;1.92;;;30.00;29.40;;;;;;5067058;28;20092;-65
2022/06/14 12:53:18;;;;;;;8.85;1.65;;;30.00;29.60;;;;;;5057343;28;20029;-65
2022/06/14 12:55:49;;;;;;;5.18;1.75;;;30.10;30.00;;;;;;5059943;28;20489;-65
2022/06/14 12:58:37;;;;;;;5.20;1.73;;;30.20;29.60;;;;;;5059954;28;20159;-65
2022/06/14 13:01:09;;;;;;;11.52;1.98;;;30.30;29.90;;;;;;5066743;28;20021;-66
2022/06/14 13:03:52;;;;;;;6.18;1.80;;;30.30;29.90;;;;;;5061796;28;20024;-66
2022/06/14 13:06:55;;;;;;;4.28;1.70;;;30.40;29.80;;;;;;5064642;28;20436;-66
2022/06/14 13:09:41;;;;;;;5.07;1.55;;;30.50;29.80;;;;;;5065071;28;20036;-66
2022/06/14 13:12:30;;;;;;;4.25;1.40;;;30.70;29.10;;;;;;5059754;28;20024;-66
2022/06/14 13:15:25;;;;;;;2.97;1.17;;;30.80;29.20;;;;;;5054443;28;20045;-66
2022/06/14 13:18:06;;;;;;;4.28;1.50;;;30.90;29.30;;;;;;5030929;28;20074;-65
2022/06/14 13:20:51;;;;;;;4.22;1.48;;;31.00;29.70;;;;;;5059273;28;20117;-66
2022/06/14 13:23:40;;;;;;;3.92;1.73;;;31.00;29.00;;;;;;5047302;28;20032;-66
2022/06/14 13:26:41;;;;;;;2.47;1.48;;;31.10;28.50;;;;;;5055943;28;20046;-66
2022/06/14 13:29:21;;;;;;;2.45;1.30;;;31.10;29.30;;;;;;5061854;28;20040;-66
2022/06/14 13:32:13;;;;;;;2.97;1.80;;;31.20;28.90;;;;;;5057279;28;20085;-66
2022/06/14 13:34:50;;;;;;;4.25;1.45;;;31.20;27.80;;;;;;5060219;28;20046;-65
2022/06/14 13:37:37;;;;;;;2.33;1.30;;;31.20;28.80;;;;;;5065141;28;20404;-65
2022/06/14 13:40:35;;;;;;;3.35;1.85;;;31.20;28.90;;;;;;5061390;28;20513;-65
2022/06/14 13:43:13;;;;;;;2.35;1.50;;;31.30;28.50;;;;;;5047944;28;20052;-66
2022/06/14 13:46:09;;;;;;;4.97;1.45;;;31.40;28.80;;;;;;5049078;28;20121;-65
2022/06/14 13:49:15;;;;;;;3.95;1.95;;;31.50;28.00;;;;;;5059889;28;20032;-66
2022/06/14 13:52:18;;;;;;;3.10;1.25;;;31.50;28.10;;;;;;5056469;28;20476;-66
2022/06/14 13:55:04;;;;;;;3.60;1.23;;;31.50;28.20;;;;;;5056722;28;20029;-66
2022/06/14 13:57:37;;;;;;;3.42;1.40;;;31.60;28.40;;;;;;5034464;28;20052;-66
2022/06/14 14:00:29;;;;;;;3.13;1.40;;;31.70;27.50;;;;;;5060738;28;20033;-66
2022/06/14 14:03:33;;;;;;;3.13;1.55;;;31.70;27.90;;;;;;5061170;28;20021;-66
2022/06/14 14:06:16;;;;;;;3.05;1.50;;;31.80;27.50;;;;;;5056779;28;20024;-66